sensor_id;sensor_type;location;lat;lon;timestamp;pressure;altitude;pressure_sealevel;temperature;humidity
55289;BME280;41154;45.394;5.734;2022-09-20T00:01:28;97317.56;;;8.00;100.00
55289;BME280;41154;45.394;5.734;2022-09-20T00:03:58;97313.91;;;7.82;100.00
55289;BME280;41154;45.394;5.734;2022-09-20T00:06:27;97317.53;;;7.69;100.00
55289;BME280;41154;45.394;5.734;2022-09-20T00:08:53;97317.47;;;7.76;100.00
55289;BME280;41154;45.394;5.734;2022-09-20T00:11:24;97317.16;;;7.84;100.00
55289;BME280;41154;45.394;5.734;2022-09-20T00:13:53;97313.38;;;7.73;100.00
55289;BME280;41154;45.394;5.734;2022-09-20T00:16:24;97307.94;;;7.80;100.00
55289;BME280;41154;45.394;5.734;2022-09-20T00:18:51;97314.78;;;7.76;100.00
55289;BME280;41154;45.394;5.734;2022-09-20T00:21:20;97317.75;;;7.68;100.00
55289;BME280;41154;45.394;5.734;2022-09-20T00:23:46;97310.13;;;7.71;100.00
55289;BME280;41154;45.394;5.734;2022-09-20T00:26:12;97315.81;;;7.38;100.00
55289;BME280;41154;45.394;5.734;2022-09-20T00:28:39;97318.63;;;7.43;100.00
55289;BME280;41154;45.394;5.734;2022-09-20T00:31:05;97323.38;;;7.41;100.00
55289;BME280;41154;45.394;5.734;2022-09-20T00:33:32;97322.47;;;7.29;100.00
55289;BME280;41154;45.394;5.734;2022-09-20T00:36:17;97326.78;;;7.30;100.00
55289;BME280;41154;45.394;5.734;2022-09-20T00:38:43;97325.69;;;7.37;100.00
55289;BME280;41154;45.394;5.734;2022-09-20T00:41:09;97316.13;;;7.48;100.00
55289;BME280;41154;45.394;5.734;2022-09-20T00:43:40;97319.16;;;7.33;100.00
55289;BME280;41154;45.394;5.734;2022-09-20T00:46:34;97316.00;;;7.18;100.00
55289;BME280;41154;45.394;5.734;2022-09-20T00:49:13;97317.56;;;7.07;100.00
55289;BME280;41154;45.394;5.734;2022-09-20T00:51:45;97314.88;;;7.07;100.00
55289;BME280;41154;45.394;5.734;2022-09-20T00:54:14;97322.78;;;7.20;100.00
55289;BME280;41154;45.394;5.734;2022-09-20T00:56:43;97323.06;;;7.12;100.00
55289;BME280;41154;45.394;5.734;2022-09-20T01:01:58;97328.69;;;7.23;100.00
55289;BME280;41154;45.394;5.734;2022-09-20T01:04:27;97325.66;;;7.19;100.00
55289;BME280;41154;45.394;5.734;2022-09-20T01:06:57;97327.34;;;7.13;100.00
55289;BME280;41154;45.394;5.734;2022-09-20T01:09:25;97323.63;;;6.96;100.00
55289;BME280;41154;45.394;5.734;2022-09-20T01:11:53;97327.91;;;6.97;100.00
55289;BME280;41154;45.394;5.734;2022-09-20T01:14:21;97318.28;;;6.96;100.00
55289;BME280;41154;45.394;5.734;2022-09-20T01:16:49;97324.47;;;6.90;100.00
55289;BME280;41154;45.394;5.734;2022-09-20T01:19:29;97315.47;;;6.91;100.00
55289;BME280;41154;45.394;5.734;2022-09-20T01:22:02;97312.63;;;6.86;100.00
55289;BME280;41154;45.394;5.734;2022-09-20T01:24:45;97315.63;;;6.71;100.00
55289;BME280;41154;45.394;5.734;2022-09-20T01:30:05;97320.31;;;6.75;100.00
55289;BME280;41154;45.394;5.734;2022-09-20T01:35:10;97327.81;;;6.60;100.00
55289;BME280;41154;45.394;5.734;2022-09-20T01:37:49;97328.72;;;6.47;100.00
55289;BME280;41154;45.394;5.734;2022-09-20T01:40:45;97328.38;;;6.37;100.00
55289;BME280;41154;45.394;5.734;2022-09-20T01:46:29;97325.69;;;6.37;100.00
55289;BME280;41154;45.394;5.734;2022-09-20T01:57:29;97327.84;;;6.53;100.00
55289;BME280;41154;45.394;5.734;2022-09-20T02:06:03;97323.19;;;6.42;100.00
55289;BME280;41154;45.394;5.734;2022-09-20T02:08:59;97332.84;;;6.43;100.00
55289;BME280;41154;45.394;5.734;2022-09-20T02:11:50;97328.56;;;6.35;100.00
55289;BME280;41154;45.394;5.734;2022-09-20T02:17:27;97317.41;;;6.20;100.00
55289;BME280;41154;45.394;5.734;2022-09-20T02:28:24;97331.94;;;6.24;100.00
55289;BME280;41154;45.394;5.734;2022-09-20T02:31:06;97326.44;;;6.51;100.00
55289;BME280;41154;45.394;5.734;2022-09-20T02:36:44;97319.69;;;6.16;100.00
55289;BME280;41154;45.394;5.734;2022-09-20T02:39:26;97320.09;;;6.13;100.00
55289;BME280;41154;45.394;5.734;2022-09-20T02:42:31;97317.88;;;6.10;100.00
55289;BME280;41154;45.394;5.734;2022-09-20T02:47:37;97310.78;;;5.97;100.00
55289;BME280;41154;45.394;5.734;2022-09-20T02:50:41;97307.88;;;5.92;100.00
55289;BME280;41154;45.394;5.734;2022-09-20T02:54:02;97307.06;;;6.05;100.00
55289;BME280;41154;45.394;5.734;2022-09-20T02:56:38;97310.09;;;6.08;100.00
55289;BME280;41154;45.394;5.734;2022-09-20T02:59:32;97316.28;;;5.96;100.00
55289;BME280;41154;45.394;5.734;2022-09-20T03:02:11;97310.16;;;5.88;100.00
55289;BME280;41154;45.394;5.734;2022-09-20T03:16:21;97311.69;;;5.71;100.00
55289;BME280;41154;45.394;5.734;2022-09-20T03:21:50;97304.31;;;5.66;100.00
55289;BME280;41154;45.394;5.734;2022-09-20T03:25:05;97308.00;;;5.72;100.00
55289;BME280;41154;45.394;5.734;2022-09-20T03:33:21;97303.28;;;5.74;100.00
55289;BME280;41154;45.394;5.734;2022-09-20T03:39:26;97308.00;;;5.72;100.00
55289;BME280;41154;45.394;5.734;2022-09-20T03:44:49;97309.84;;;5.65;100.00
55289;BME280;41154;45.394;5.734;2022-09-20T03:58:22;97320.97;;;5.42;100.00
55289;BME280;41154;45.394;5.734;2022-09-20T04:12:11;97328.13;;;5.48;100.00
55289;BME280;41154;45.394;5.734;2022-09-20T04:18:16;97333.88;;;5.45;100.00
55289;BME280;41154;45.394;5.734;2022-09-20T04:20:50;97323.63;;;5.42;100.00
55289;BME280;41154;45.394;5.734;2022-09-20T04:26:28;97325.66;;;5.53;100.00
55289;BME280;41154;45.394;5.734;2022-09-20T04:31:44;97331.00;;;5.33;100.00
55289;BME280;41154;45.394;5.734;2022-09-20T04:34:24;97325.72;;;5.26;100.00
55289;BME280;41154;45.394;5.734;2022-09-20T04:37:32;97329.19;;;5.33;100.00
55289;BME280;41154;45.394;5.734;2022-09-20T04:48:44;97342.69;;;5.32;100.00
55289;BME280;41154;45.394;5.734;2022-09-20T04:57:47;97340.88;;;5.26;100.00
55289;BME280;41154;45.394;5.734;2022-09-20T05:00:21;97344.56;;;5.18;100.00
55289;BME280;41154;45.394;5.734;2022-09-20T05:14:33;97345.81;;;4.62;100.00
55289;BME280;41154;45.394;5.734;2022-09-20T05:32:02;97353.16;;;5.00;100.00
55289;BME280;41154;45.394;5.734;2022-09-20T05:34:30;97361.13;;;4.80;100.00
55289;BME280;41154;45.394;5.734;2022-09-20T05:37:09;97350.72;;;4.92;100.00
55289;BME280;41154;45.394;5.734;2022-09-20T05:42:17;97360.94;;;5.01;100.00
55289;BME280;41154;45.394;5.734;2022-09-20T05:45:16;97370.34;;;4.97;100.00
55289;BME280;41154;45.394;5.734;2022-09-20T05:47:51;97364.22;;;5.10;100.00
55289;BME280;41154;45.394;5.734;2022-09-20T05:58:51;97371.16;;;5.04;100.00
55289;BME280;41154;45.394;5.734;2022-09-20T06:01:27;97367.91;;;5.16;100.00
55289;BME280;41154;45.394;5.734;2022-09-20T06:09:41;97380.97;;;5.11;100.00
55289;BME280;41154;45.394;5.734;2022-09-20T06:12:54;97383.00;;;4.95;100.00
55289;BME280;41154;45.394;5.734;2022-09-20T06:16:15;97385.88;;;5.07;100.00
55289;BME280;41154;45.394;5.734;2022-09-20T06:23:54;97381.16;;;5.29;100.00
55289;BME280;41154;45.394;5.734;2022-09-20T06:26:25;97385.47;;;5.17;100.00
55289;BME280;41154;45.394;5.734;2022-09-20T06:28:57;97385.09;;;5.07;100.00
55289;BME280;41154;45.394;5.734;2022-09-20T06:31:25;97383.66;;;5.17;100.00
55289;BME280;41154;45.394;5.734;2022-09-20T06:34:06;97385.09;;;5.07;100.00
55289;BME280;41154;45.394;5.734;2022-09-20T06:36:38;97390.59;;;5.12;100.00
55289;BME280;41154;45.394;5.734;2022-09-20T06:39:47;97390.41;;;4.86;100.00
55289;BME280;41154;45.394;5.734;2022-09-20T06:42:32;97385.47;;;4.77;100.00
55289;BME280;41154;45.394;5.734;2022-09-20T06:44:58;97393.03;;;4.66;100.00
55289;BME280;41154;45.394;5.734;2022-09-20T06:47:24;97397.72;;;4.78;100.00
55289;BME280;41154;45.394;5.734;2022-09-20T06:49:50;97390.38;;;4.80;100.00
55289;BME280;41154;45.394;5.734;2022-09-20T06:52:18;97386.72;;;4.94;100.00
55289;BME280;41154;45.394;5.734;2022-09-20T06:54:49;97396.94;;;5.04;100.00
55289;BME280;41154;45.394;5.734;2022-09-20T06:57:22;97393.03;;;5.20;100.00
55289;BME280;41154;45.394;5.734;2022-09-20T06:59:48;97388.72;;;5.32;100.00
55289;BME280;41154;45.394;5.734;2022-09-20T07:02:14;97385.66;;;5.29;100.00
55289;BME280;41154;45.394;5.734;2022-09-20T07:04:40;97385.94;;;5.99;100.00
55289;BME280;41154;45.394;5.734;2022-09-20T07:07:06;97382.19;;;10.23;100.00
55289;BME280;41154;45.394;5.734;2022-09-20T07:09:33;97381.22;;;12.87;100.00
55289;BME280;41154;45.394;5.734;2022-09-20T07:11:59;97376.28;;;14.55;86.72
55289;BME280;41154;45.394;5.734;2022-09-20T07:14:26;97384.88;;;14.42;82.11
55289;BME280;41154;45.394;5.734;2022-09-20T07:16:52;97373.66;;;15.53;77.02
55289;BME280;41154;45.394;5.734;2022-09-20T07:19:18;97368.97;;;17.04;71.13
55289;BME280;41154;45.394;5.734;2022-09-20T07:21:44;97369.75;;;16.65;71.53
55289;BME280;41154;45.394;5.734;2022-09-20T07:24:10;97379.28;;;17.95;65.81
55289;BME280;41154;45.394;5.734;2022-09-20T07:26:37;97371.94;;;17.67;68.39
55289;BME280;41154;45.394;5.734;2022-09-20T07:29:03;97374.81;;;16.77;70.89
55289;BME280;41154;45.394;5.734;2022-09-20T07:31:31;97376.28;;;15.99;75.47
55289;BME280;41154;45.394;5.734;2022-09-20T07:33:56;97385.31;;;17.87;68.68
55289;BME280;41154;45.394;5.734;2022-09-20T07:36:23;97373.53;;;17.09;73.75
55289;BME280;41154;45.394;5.734;2022-09-20T07:38:51;97373.63;;;17.33;71.94
55289;BME280;41154;45.394;5.734;2022-09-20T07:41:18;97375.16;;;18.65;67.49
55289;BME280;41154;45.394;5.734;2022-09-20T07:43:45;97378.00;;;18.55;67.24
55289;BME280;41154;45.394;5.734;2022-09-20T07:46:11;97385.34;;;18.74;69.19
55289;BME280;41154;45.394;5.734;2022-09-20T07:48:40;97374.25;;;18.08;68.55
55289;BME280;41154;45.394;5.734;2022-09-20T07:51:09;97375.00;;;17.60;69.10
55289;BME280;41154;45.394;5.734;2022-09-20T07:53:36;97377.91;;;18.84;64.80
55289;BME280;41154;45.394;5.734;2022-09-20T07:58:31;97374.28;;;19.41;62.58
55289;BME280;41154;45.394;5.734;2022-09-20T08:01:02;97378.22;;;19.16;63.17
55289;BME280;41154;45.394;5.734;2022-09-20T08:03:29;97377.75;;;18.95;64.79
55289;BME280;41154;45.394;5.734;2022-09-20T08:06:04;97376.91;;;19.79;62.17
55289;BME280;41154;45.394;5.734;2022-09-20T08:08:32;97382.91;;;22.26;52.68
55289;BME280;41154;45.394;5.734;2022-09-20T08:11:06;97379.00;;;22.10;51.87
55289;BME280;41154;45.394;5.734;2022-09-20T08:13:37;97380.00;;;21.06;56.32
55289;BME280;41154;45.394;5.734;2022-09-20T08:16:04;97385.78;;;19.99;60.75
55289;BME280;41154;45.394;5.734;2022-09-20T08:18:31;97377.94;;;20.11;61.90
55289;BME280;41154;45.394;5.734;2022-09-20T08:21:06;97380.94;;;20.23;62.96
55289;BME280;41154;45.394;5.734;2022-09-20T08:23:41;97382.94;;;20.45;60.80
55289;BME280;41154;45.394;5.734;2022-09-20T08:26:11;97371.16;;;21.77;54.36
55289;BME280;41154;45.394;5.734;2022-09-20T08:28:39;97380.34;;;22.88;51.40
55289;BME280;41154;45.394;5.734;2022-09-20T08:31:13;97374.72;;;21.10;55.79
55289;BME280;41154;45.394;5.734;2022-09-20T08:33:41;97376.78;;;22.96;49.09
55289;BME280;41154;45.394;5.734;2022-09-20T08:36:13;97380.97;;;23.46;47.52
55289;BME280;41154;45.394;5.734;2022-09-20T08:38:39;97382.91;;;22.93;50.04
55289;BME280;41154;45.394;5.734;2022-09-20T08:41:16;97390.78;;;23.29;47.04
55289;BME280;41154;45.394;5.734;2022-09-20T08:46:43;97393.00;;;20.87;55.67
55289;BME280;41154;45.394;5.734;2022-09-20T08:49:18;97392.72;;;20.60;53.68
55289;BME280;41154;45.394;5.734;2022-09-20T08:51:47;97393.03;;;21.54;54.42
55289;BME280;41154;45.394;5.734;2022-09-20T08:54:15;97392.38;;;20.90;53.88
55289;BME280;41154;45.394;5.734;2022-09-20T08:56:41;97388.69;;;20.72;54.51
55289;BME280;41154;45.394;5.734;2022-09-20T08:59:20;97376.81;;;20.90;52.93
55289;BME280;41154;45.394;5.734;2022-09-20T09:01:47;97385.22;;;19.69;56.66
55289;BME280;41154;45.394;5.734;2022-09-20T09:06:45;97384.16;;;18.42;62.31
55289;BME280;41154;45.394;5.734;2022-09-20T09:09:17;97386.81;;;16.61;64.85
55289;BME280;41154;45.394;5.734;2022-09-20T09:11:45;97385.13;;;18.08;61.62
55289;BME280;41154;45.394;5.734;2022-09-20T09:14:21;97385.19;;;17.73;64.02
55289;BME280;41154;45.394;5.734;2022-09-20T09:17:09;97382.59;;;17.87;65.82
55289;BME280;41154;45.394;5.734;2022-09-20T09:19:45;97386.88;;;17.93;68.15
55289;BME280;41154;45.394;5.734;2022-09-20T09:22:13;97380.38;;;17.36;67.50
55289;BME280;41154;45.394;5.734;2022-09-20T09:24:42;97381.88;;;17.18;73.61
55289;BME280;41154;45.394;5.734;2022-09-20T09:29:51;97382.16;;;17.16;68.08
55289;BME280;41154;45.394;5.734;2022-09-20T09:32:25;97375.22;;;17.64;67.77
55289;BME280;41154;45.394;5.734;2022-09-20T09:34:59;97367.19;;;17.24;70.55
55289;BME280;41154;45.394;5.734;2022-09-20T09:37:53;97374.06;;;17.46;71.81
55289;BME280;41154;45.394;5.734;2022-09-20T09:40:19;97374.47;;;16.94;71.00
55289;BME280;41154;45.394;5.734;2022-09-20T09:45:31;97380.06;;;16.63;68.72
55289;BME280;41154;45.394;5.734;2022-09-20T09:48:01;97374.50;;;16.89;69.71
55289;BME280;41154;45.394;5.734;2022-09-20T09:50:32;97370.56;;;16.61;70.84
55289;BME280;41154;45.394;5.734;2022-09-20T09:53:10;97374.06;;;16.66;70.13
55289;BME280;41154;45.394;5.734;2022-09-20T09:55:51;97363.81;;;16.08;73.16
55289;BME280;41154;45.394;5.734;2022-09-20T10:00:48;97367.03;;;16.65;73.22
55289;BME280;41154;45.394;5.734;2022-09-20T10:03:30;97358.00;;;16.80;74.28
55289;BME280;41154;45.394;5.734;2022-09-20T10:27:48;97335.44;;;16.95;72.04
55289;BME280;41154;45.394;5.734;2022-09-20T10:30:19;97332.00;;;16.40;78.37
55289;BME280;41154;45.394;5.734;2022-09-20T10:40:53;97331.94;;;15.85;79.09
55289;BME280;41154;45.394;5.734;2022-09-20T10:46:57;97326.50;;;15.95;80.58
55289;BME280;41154;45.394;5.734;2022-09-20T10:53:00;97330.88;;;15.86;78.50
55289;BME280;41154;45.394;5.734;2022-09-20T10:58:40;97329.03;;;15.60;77.39
55289;BME280;41154;45.394;5.734;2022-09-20T11:04:27;97333.50;;;16.11;78.31
55289;BME280;41154;45.394;5.734;2022-09-20T11:07:12;97331.28;;;16.18;76.92
55289;BME280;41154;45.394;5.734;2022-09-20T11:09:42;97323.44;;;16.17;79.34
55289;BME280;41154;45.394;5.734;2022-09-20T11:12:46;97322.13;;;16.09;78.51
55289;BME280;41154;45.394;5.734;2022-09-20T11:15:31;97314.25;;;16.58;74.78
55289;BME280;41154;45.394;5.734;2022-09-20T11:21:15;97324.03;;;16.59;77.94
55289;BME280;41154;45.394;5.734;2022-09-20T11:23:59;97330.00;;;16.56;77.71
55289;BME280;41154;45.394;5.734;2022-09-20T11:26:56;97328.72;;;16.38;80.10
55289;BME280;41154;45.394;5.734;2022-09-20T11:32:45;97330.56;;;15.92;78.24
55289;BME280;41154;45.394;5.734;2022-09-20T11:35:28;97325.56;;;16.25;78.98
55289;BME280;41154;45.394;5.734;2022-09-20T11:38:04;97331.81;;;16.15;77.82
55289;BME280;41154;45.394;5.734;2022-09-20T11:40:47;97324.75;;;16.30;80.11
55289;BME280;41154;45.394;5.734;2022-09-20T11:43:15;97323.22;;;16.08;80.00
55289;BME280;41154;45.394;5.734;2022-09-20T11:45:42;97318.97;;;16.42;80.06
55289;BME280;41154;45.394;5.734;2022-09-20T11:48:25;97317.34;;;15.86;79.69
55289;BME280;41154;45.394;5.734;2022-09-20T11:56:22;97320.59;;;16.43;79.15
55289;BME280;41154;45.394;5.734;2022-09-20T11:58:52;97315.88;;;16.19;78.69
55289;BME280;41154;45.394;5.734;2022-09-20T12:01:39;97313.97;;;16.59;82.25
55289;BME280;41154;45.394;5.734;2022-09-20T12:06:57;97322.56;;;16.77;77.10
55289;BME280;41154;45.394;5.734;2022-09-20T12:09:29;97312.13;;;16.54;78.63
55289;BME280;41154;45.394;5.734;2022-09-20T12:11:57;97315.03;;;16.24;78.98
55289;BME280;41154;45.394;5.734;2022-09-20T12:14:28;97320.28;;;15.99;78.03
55289;BME280;41154;45.394;5.734;2022-09-20T12:16:54;97314.75;;;16.20;79.74
55289;BME280;41154;45.394;5.734;2022-09-20T12:24:39;97306.16;;;16.58;81.42
55289;BME280;41154;45.394;5.734;2022-09-20T12:29:54;97295.81;;;16.65;80.09
55289;BME280;41154;45.394;5.734;2022-09-20T12:41:09;97307.63;;;16.79;79.41
55289;BME280;41154;45.394;5.734;2022-09-20T12:46:34;97309.13;;;16.61;79.25
55289;BME280;41154;45.394;5.734;2022-09-20T12:58:20;97305.69;;;16.85;77.92
55289;BME280;41154;45.394;5.734;2022-09-20T13:01:26;97303.16;;;16.59;78.90
55289;BME280;41154;45.394;5.734;2022-09-20T13:03:41;97308.38;;;16.50;78.08
55289;BME280;41154;45.394;5.734;2022-09-20T13:08:42;97304.31;;;16.93;75.52
55289;BME280;41154;45.394;5.734;2022-09-20T13:11:15;97303.03;;;17.14;76.64
55289;BME280;41154;45.394;5.734;2022-09-20T13:19:13;97302.44;;;16.88;76.75
55289;BME280;41154;45.394;5.734;2022-09-20T13:24:23;97302.13;;;16.95;75.81
55289;BME280;41154;45.394;5.734;2022-09-20T13:26:51;97307.06;;;16.82;75.09
55289;BME280;41154;45.394;5.734;2022-09-20T13:29:39;97306.31;;;17.11;73.93
55289;BME280;41154;45.394;5.734;2022-09-20T13:32:29;97306.66;;;16.65;74.17
55289;BME280;41154;45.394;5.734;2022-09-20T13:35:12;97303.03;;;16.75;73.74
55289;BME280;41154;45.394;5.734;2022-09-20T13:38:07;97299.28;;;17.10;73.54
55289;BME280;41154;45.394;5.734;2022-09-20T13:40:36;97302.31;;;17.03;73.42
55289;BME280;41154;45.394;5.734;2022-09-20T13:43:22;97303.16;;;16.99;73.56
55289;BME280;41154;45.394;5.734;2022-09-20T13:45:52;97302.47;;;17.17;74.22
55289;BME280;41154;45.394;5.734;2022-09-20T13:48:25;97308.75;;;17.13;71.87
55289;BME280;41154;45.394;5.734;2022-09-20T13:50:51;97298.41;;;17.15;73.04
55289;BME280;41154;45.394;5.734;2022-09-20T13:53:17;97304.84;;;17.24;72.53
55289;BME280;41154;45.394;5.734;2022-09-20T13:55:43;97297.41;;;17.05;72.56
55289;BME280;41154;45.394;5.734;2022-09-20T13:58:24;97301.63;;;17.22;73.98
55289;BME280;41154;45.394;5.734;2022-09-20T14:00:56;97297.94;;;17.37;71.22
55289;BME280;41154;45.394;5.734;2022-09-20T14:03:25;97299.03;;;17.06;72.94
55289;BME280;41154;45.394;5.734;2022-09-20T14:06:12;97296.84;;;17.38;73.11
55289;BME280;41154;45.394;5.734;2022-09-20T14:08:45;97296.47;;;17.20;72.42
55289;BME280;41154;45.394;5.734;2022-09-20T14:11:18;97296.00;;;17.13;71.77
55289;BME280;41154;45.394;5.734;2022-09-20T14:13:49;97308.41;;;17.19;71.47
55289;BME280;41154;45.394;5.734;2022-09-20T14:16:16;97290.22;;;17.20;71.36
55289;BME280;41154;45.394;5.734;2022-09-20T14:18:43;97291.38;;;17.14;72.32
55289;BME280;41154;45.394;5.734;2022-09-20T14:21:16;97293.19;;;17.23;72.58
55289;BME280;41154;45.394;5.734;2022-09-20T14:23:51;97297.50;;;17.24;70.04
55289;BME280;41154;45.394;5.734;2022-09-20T14:26:27;97292.72;;;17.16;71.74
55289;BME280;41154;45.394;5.734;2022-09-20T14:28:54;97291.13;;;17.10;71.41
55289;BME280;41154;45.394;5.734;2022-09-20T14:31:29;97292.44;;;17.42;71.77
55289;BME280;41154;45.394;5.734;2022-09-20T14:33:59;97285.53;;;17.31;70.83
55289;BME280;41154;45.394;5.734;2022-09-20T14:36:28;97300.19;;;17.30;70.65
55289;BME280;41154;45.394;5.734;2022-09-20T14:38:56;97294.22;;;16.98;70.18
55289;BME280;41154;45.394;5.734;2022-09-20T14:41:38;97293.06;;;17.34;68.95
55289;BME280;41154;45.394;5.734;2022-09-20T14:44:16;97286.00;;;17.38;69.76
55289;BME280;41154;45.394;5.734;2022-09-20T14:46:46;97286.28;;;17.36;71.17
55289;BME280;41154;45.394;5.734;2022-09-20T14:49:36;97296.50;;;17.15;70.31
55289;BME280;41154;45.394;5.734;2022-09-20T14:52:40;97293.47;;;17.22;69.64
55289;BME280;41154;45.394;5.734;2022-09-20T14:57:34;97293.47;;;17.22;69.64
55289;BME280;41154;45.394;5.734;2022-09-20T15:00:04;97291.78;;;17.31;68.77
55289;BME280;41154;45.394;5.734;2022-09-20T15:02:34;97287.38;;;17.35;69.37
55289;BME280;41154;45.394;5.734;2022-09-20T15:05:00;97284.44;;;17.56;67.32
55289;BME280;41154;45.394;5.734;2022-09-20T15:07:27;97285.38;;;17.46;68.59
55289;BME280;41154;45.394;5.734;2022-09-20T15:09:53;97280.72;;;17.47;68.16
55289;BME280;41154;45.394;5.734;2022-09-20T15:12:20;97283.94;;;17.24;68.62
55289;BME280;41154;45.394;5.734;2022-09-20T15:14:47;97288.78;;;17.33;68.40
55289;BME280;41154;45.394;5.734;2022-09-20T15:17:18;97275.38;;;17.41;68.37
55289;BME280;41154;45.394;5.734;2022-09-20T15:19:48;97279.16;;;17.16;68.71
55289;BME280;41154;45.394;5.734;2022-09-20T15:22:14;97286.22;;;17.17;68.72
55289;BME280;41154;45.394;5.734;2022-09-20T15:24:40;97280.78;;;17.17;67.40
55289;BME280;41154;45.394;5.734;2022-09-20T15:27:06;97285.09;;;17.18;68.67
55289;BME280;41154;45.394;5.734;2022-09-20T15:29:32;97280.16;;;17.25;68.51
55289;BME280;41154;45.394;5.734;2022-09-20T15:31:58;97272.28;;;17.53;68.59
55289;BME280;41154;45.394;5.734;2022-09-20T15:34:24;97269.44;;;17.39;68.84
55289;BME280;41154;45.394;5.734;2022-09-20T15:36:50;97270.81;;;17.37;68.60
55289;BME280;41154;45.394;5.734;2022-09-20T15:39:16;97275.53;;;17.26;67.95
55289;BME280;41154;45.394;5.734;2022-09-20T15:41:41;97265.63;;;17.40;67.78
55289;BME280;41154;45.394;5.734;2022-09-20T15:44:09;97267.38;;;17.55;67.46
55289;BME280;41154;45.394;5.734;2022-09-20T15:46:35;97267.25;;;17.41;68.18
55289;BME280;41154;45.394;5.734;2022-09-20T15:49:02;97266.56;;;17.55;68.80
55289;BME280;41154;45.394;5.734;2022-09-20T15:51:31;97265.59;;;17.46;70.07
55289;BME280;41154;45.394;5.734;2022-09-20T15:53:59;97265.28;;;17.47;67.48
55289;BME280;41154;45.394;5.734;2022-09-20T15:56:28;97263.50;;;17.37;68.14
55289;BME280;41154;45.394;5.734;2022-09-20T15:59:07;97268.31;;;17.16;69.37
55289;BME280;41154;45.394;5.734;2022-09-20T16:01:35;97273.16;;;17.19;70.79
55289;BME280;41154;45.394;5.734;2022-09-20T16:04:16;97269.69;;;17.14;68.35
55289;BME280;41154;45.394;5.734;2022-09-20T16:06:45;97274.22;;;17.23;67.65
55289;BME280;41154;45.394;5.734;2022-09-20T16:09:14;97276.44;;;17.16;69.42
55289;BME280;41154;45.394;5.734;2022-09-20T16:11:40;97278.94;;;17.37;67.63
55289;BME280;41154;45.394;5.734;2022-09-20T16:14:06;97275.03;;;17.48;67.52
55289;BME280;41154;45.394;5.734;2022-09-20T16:16:35;97269.84;;;17.52;66.47
55289;BME280;41154;45.394;5.734;2022-09-20T16:19:01;97276.53;;;17.35;67.50
55289;BME280;41154;45.394;5.734;2022-09-20T16:21:46;97273.75;;;17.40;68.35
55289;BME280;41154;45.394;5.734;2022-09-20T16:24:17;97278.06;;;17.17;70.42
55289;BME280;41154;45.394;5.734;2022-09-20T16:26:43;97275.38;;;17.17;72.26
55289;BME280;41154;45.394;5.734;2022-09-20T16:29:09;97278.06;;;16.88;76.56
55289;BME280;41154;45.394;5.734;2022-09-20T16:31:43;97267.09;;;16.69;77.65
55289;BME280;41154;45.394;5.734;2022-09-20T16:36:56;97272.63;;;16.48;80.33
55289;BME280;41154;45.394;5.734;2022-09-20T16:39:24;97267.91;;;16.30;81.45
55289;BME280;41154;45.394;5.734;2022-09-20T16:41:58;97265.53;;;16.18;82.61
55289;BME280;41154;45.394;5.734;2022-09-20T16:44:35;97266.75;;;15.91;84.95
55289;BME280;41154;45.394;5.734;2022-09-20T16:47:02;97273.84;;;15.67;87.05
55289;BME280;41154;45.394;5.734;2022-09-20T16:49:31;97269.84;;;15.54;88.46
55289;BME280;41154;45.394;5.734;2022-09-20T16:51:57;97271.22;;;15.36;90.40
55289;BME280;41154;45.394;5.734;2022-09-20T16:54:23;97269.38;;;15.21;89.44
55289;BME280;41154;45.394;5.734;2022-09-20T16:56:49;97273.69;;;15.27;89.73
55289;BME280;41154;45.394;5.734;2022-09-20T16:59:19;97272.91;;;15.16;89.84
55289;BME280;41154;45.394;5.734;2022-09-20T17:01:46;97275.88;;;15.04;90.72
55289;BME280;41154;45.394;5.734;2022-09-20T17:04:13;97275.09;;;14.88;91.73
55289;BME280;41154;45.394;5.734;2022-09-20T17:06:41;97279.94;;;14.81;92.45
55289;BME280;41154;45.394;5.734;2022-09-20T17:09:08;97281.31;;;14.68;93.19
55289;BME280;41154;45.394;5.734;2022-09-20T17:11:40;97282.88;;;14.54;95.16
55289;BME280;41154;45.394;5.734;2022-09-20T17:14:06;97285.56;;;14.38;96.36
55289;BME280;41154;45.394;5.734;2022-09-20T17:16:35;97287.44;;;14.33;96.62
55289;BME280;41154;45.394;5.734;2022-09-20T17:19:04;97295.22;;;14.14;97.58
55289;BME280;41154;45.394;5.734;2022-09-20T17:21:32;97294.63;;;14.01;98.98
55289;BME280;41154;45.394;5.734;2022-09-20T17:24:00;97304.84;;;13.94;99.41
55289;BME280;41154;45.394;5.734;2022-09-20T17:26:31;97306.97;;;13.82;100.00
55289;BME280;41154;45.394;5.734;2022-09-20T17:29:02;97305.84;;;13.73;100.00
55289;BME280;41154;45.394;5.734;2022-09-20T17:31:30;97312.56;;;13.65;100.00
55289;BME280;41154;45.394;5.734;2022-09-20T17:33:59;97313.63;;;13.64;100.00
55289;BME280;41154;45.394;5.734;2022-09-20T17:36:29;97314.84;;;13.41;100.00
55289;BME280;41154;45.394;5.734;2022-09-20T17:38:57;97321.03;;;13.41;100.00
55289;BME280;41154;45.394;5.734;2022-09-20T17:41:23;97326.03;;;13.27;100.00
55289;BME280;41154;45.394;5.734;2022-09-20T17:43:56;97328.41;;;13.13;100.00
55289;BME280;41154;45.394;5.734;2022-09-20T17:46:25;97334.81;;;13.07;100.00
55289;BME280;41154;45.394;5.734;2022-09-20T17:48:57;97332.94;;;13.13;100.00
55289;BME280;41154;45.394;5.734;2022-09-20T17:51:30;97346.66;;;13.11;100.00
55289;BME280;41154;45.394;5.734;2022-09-20T17:53:56;97345.59;;;13.07;100.00
55289;BME280;41154;45.394;5.734;2022-09-20T17:56:24;97341.75;;;13.03;100.00
55289;BME280;41154;45.394;5.734;2022-09-20T17:58:54;97345.19;;;12.93;100.00
55289;BME280;41154;45.394;5.734;2022-09-20T18:01:21;97340.88;;;12.65;100.00
55289;BME280;41154;45.394;5.734;2022-09-20T18:03:47;97347.81;;;12.56;100.00
55289;BME280;41154;45.394;5.734;2022-09-20T18:06:19;97351.69;;;12.43;100.00
55289;BME280;41154;45.394;5.734;2022-09-20T18:08:49;97349.53;;;12.40;100.00
55289;BME280;41154;45.394;5.734;2022-09-20T18:11:17;97357.34;;;12.41;100.00
55289;BME280;41154;45.394;5.734;2022-09-20T18:13:42;97362.03;;;12.51;100.00